createdAt,value
2019-03-27T00:01:26.896Z,88.00
2019-03-27T00:03:52.676Z,88.27
2019-03-27T00:06:18.467Z,88.35
2019-03-27T00:08:44.254Z,88.60
2019-03-27T00:11:10.047Z,88.93
2019-03-27T00:13:35.824Z,88.81
2019-03-27T00:16:01.612Z,88.81
2019-03-27T00:18:27.396Z,88.80
2019-03-27T00:20:53.321Z,88.93
2019-03-27T00:23:19.111Z,89.19
2019-03-27T00:25:45.015Z,88.97
2019-03-27T00:28:10.798Z,88.97
2019-03-27T00:30:36.597Z,89.35
2019-03-27T00:33:02.373Z,89.39
2019-03-27T00:35:28.160Z,89.74
2019-03-27T00:37:53.940Z,89.94
2019-03-27T00:40:19.723Z,90.02
2019-03-27T00:42:45.520Z,89.91
2019-03-27T00:45:11.420Z,90.21
2019-03-27T00:47:37.198Z,90.21
2019-03-27T00:50:07.376Z,90.05
2019-03-27T00:52:33.170Z,90.05
2019-03-27T00:54:58.954Z,90.42
2019-03-27T00:57:24.749Z,90.15
2019-03-27T00:59:50.521Z,90.31
2019-03-27T01:02:16.374Z,90.31
2019-03-27T01:04:42.091Z,90.46
2019-03-27T01:07:07.886Z,90.50
2019-03-27T01:09:33.668Z,90.23
2019-03-27T01:11:59.659Z,90.22
2019-03-27T01:14:25.444Z,90.46
2019-03-27T01:16:51.240Z,90.51
2019-03-27T01:19:17.018Z,90.71
2019-03-27T01:21:42.808Z,90.65
2019-03-27T01:24:08.599Z,90.65
2019-03-27T01:26:34.395Z,90.77
2019-03-27T01:29:00.173Z,90.84
2019-03-27T01:31:25.963Z,90.79
2019-03-27T01:33:51.741Z,90.80
2019-03-27T01:36:17.536Z,90.71
2019-03-27T01:38:43.320Z,90.51
2019-03-27T01:41:09.103Z,90.30
2019-03-27T01:43:34.895Z,90.44
2019-03-27T01:46:00.677Z,90.27
2019-03-27T01:48:26.464Z,90.44
2019-03-27T01:50:52.259Z,90.29
2019-03-27T01:53:18.060Z,90.25
2019-03-27T01:55:43.834Z,90.25
2019-03-27T01:58:09.632Z,90.16
2019-03-27T02:00:35.413Z,90.16
2019-03-27T02:03:01.203Z,90.15
2019-03-27T02:05:26.989Z,89.92
2019-03-27T02:07:52.797Z,90.03
2019-03-27T02:10:18.571Z,90.02
2019-03-27T02:12:44.361Z,90.11
2019-03-27T02:15:10.455Z,90.22
2019-03-27T02:17:36.252Z,90.22
2019-03-27T02:20:03.835Z,90.13
2019-03-27T02:22:29.650Z,89.98
2019-03-27T02:24:55.424Z,89.81
2019-03-27T02:27:21.211Z,89.74
2019-03-27T02:29:46.992Z,89.65
2019-03-27T02:32:12.785Z,89.88
2019-03-27T02:34:38.560Z,89.71
2019-03-27T02:37:04.363Z,89.60
2019-03-27T02:39:30.138Z,89.68
2019-03-27T02:41:55.937Z,89.57
2019-03-27T02:44:21.705Z,89.67
2019-03-27T02:46:47.475Z,89.71
2019-03-27T02:49:13.269Z,89.73
2019-03-27T02:51:39.049Z,89.64
2019-03-27T02:54:04.841Z,89.61
2019-03-27T02:56:30.619Z,89.32
2019-03-27T02:58:56.416Z,89.34
2019-03-27T03:01:22.188Z,89.67
2019-03-27T03:03:47.980Z,89.66
2019-03-27T03:06:13.759Z,89.93
2019-03-27T03:08:39.547Z,89.81
2019-03-27T03:11:05.325Z,89.86
2019-03-27T03:13:31.116Z,89.97
2019-03-27T03:15:56.899Z,89.79
2019-03-27T03:18:22.682Z,89.96
2019-03-27T03:20:48.455Z,90.15
2019-03-27T03:23:14.267Z,90.09
2019-03-27T03:25:40.048Z,89.99
2019-03-27T03:28:05.847Z,90.20
2019-03-27T03:30:31.633Z,90.31
2019-03-27T03:32:57.446Z,90.29
2019-03-27T03:35:23.222Z,90.55
2019-03-27T03:37:49.006Z,90.57
2019-03-27T03:40:15.194Z,90.40
2019-03-27T03:42:41.073Z,90.54
2019-03-27T03:45:06.969Z,90.72
2019-03-27T03:47:32.750Z,90.79
2019-03-27T03:49:58.553Z,90.59
2019-03-27T03:52:24.338Z,90.46
2019-03-27T03:54:51.523Z,90.72
2019-03-27T03:57:18.210Z,91.07
2019-03-27T03:59:44.107Z,90.86
2019-03-27T04:02:10.991Z,90.88
2019-03-27T04:04:38.688Z,91.16
2019-03-27T04:07:04.476Z,91.21
2019-03-27T04:09:30.263Z,91.14
2019-03-27T04:11:56.047Z,91.07
2019-03-27T04:14:21.849Z,90.98
2019-03-27T04:16:47.635Z,91.19
2019-03-27T04:19:13.431Z,91.06
2019-03-27T04:21:39.226Z,91.03
2019-03-27T04:24:05.043Z,90.82
2019-03-27T04:26:33.525Z,91.13
2019-03-27T04:28:58.515Z,91.06
2019-03-27T04:31:24.322Z,91.09
2019-03-27T04:33:50.108Z,91.08
2019-03-27T04:36:15.905Z,90.92
2019-03-27T04:38:41.696Z,91.02
2019-03-27T04:41:07.462Z,91.01
2019-03-27T04:43:33.244Z,91.01
2019-03-27T04:45:59.035Z,91.03
2019-03-27T04:48:24.812Z,91.19
2019-03-27T04:50:50.603Z,90.88
2019-03-27T04:53:16.394Z,90.91
2019-03-27T04:55:42.178Z,90.92
2019-03-27T04:58:07.967Z,90.94
2019-03-27T05:00:33.758Z,91.01
2019-03-27T05:02:59.538Z,90.99
2019-03-27T05:05:25.327Z,91.14
2019-03-27T05:07:51.114Z,91.17
2019-03-27T05:10:16.903Z,91.21
2019-03-27T05:12:42.676Z,91.31
2019-03-27T05:15:08.550Z,91.32
2019-03-27T05:17:45.210Z,91.64
2019-03-27T05:20:04.827Z,91.62
2019-03-27T05:22:30.644Z,91.55
2019-03-27T05:24:56.427Z,91.54
2019-03-27T05:27:22.227Z,91.57
2019-03-27T05:29:48.002Z,91.51
2019-03-27T05:32:13.789Z,91.47
2019-03-27T05:34:39.574Z,91.70
2019-03-27T05:37:05.378Z,91.64
2019-03-27T05:39:31.150Z,91.56
2019-03-27T05:41:56.947Z,91.66
2019-03-27T05:44:22.729Z,91.82
2019-03-27T05:46:48.518Z,91.80
2019-03-27T05:49:14.295Z,91.80
2019-03-27T05:51:40.083Z,91.83
2019-03-27T05:54:05.868Z,91.83
2019-03-27T05:56:31.663Z,91.86
2019-03-27T05:58:57.446Z,91.71
2019-03-27T06:01:23.251Z,91.78
2019-03-27T06:03:49.030Z,91.74
2019-03-27T06:06:14.850Z,91.74
2019-03-27T06:08:40.628Z,91.67
2019-03-27T06:11:06.415Z,91.50
2019-03-27T06:13:32.214Z,91.51
2019-03-27T06:15:57.992Z,91.36
2019-03-27T06:18:23.788Z,91.29
2019-03-27T06:20:49.573Z,91.20
2019-03-27T06:23:15.375Z,91.08
2019-03-27T06:25:41.151Z,90.85
2019-03-27T06:28:06.948Z,90.83
2019-03-27T06:30:32.724Z,90.36
2019-03-27T06:32:58.519Z,90.26
2019-03-27T06:35:24.307Z,90.07
2019-03-27T06:37:50.109Z,89.87
2019-03-27T06:40:15.888Z,89.63
2019-03-27T06:42:41.677Z,89.44
2019-03-27T06:45:08.102Z,89.30
2019-03-27T06:47:33.861Z,88.90
2019-03-27T06:49:59.637Z,88.81
2019-03-27T06:52:25.431Z,88.65
2019-03-27T06:54:51.212Z,88.33
2019-03-27T06:57:17.006Z,88.27
2019-03-27T06:59:42.787Z,88.03
2019-03-27T07:02:08.670Z,87.80
2019-03-27T07:04:34.486Z,87.41
2019-03-27T07:07:00.260Z,87.41
2019-03-27T07:09:26.057Z,86.91
2019-03-27T07:11:51.839Z,86.69
2019-03-27T07:14:17.631Z,85.80
2019-03-27T07:16:43.408Z,85.45
2019-03-27T07:19:09.210Z,85.04
2019-03-27T07:21:34.994Z,84.37
2019-03-27T07:24:00.805Z,83.01
2019-03-27T07:26:26.581Z,82.78
2019-03-27T07:28:52.380Z,83.06
2019-03-27T07:31:18.154Z,83.07
2019-03-27T07:33:43.958Z,83.33
2019-03-27T07:36:09.740Z,83.81
2019-03-27T07:38:35.529Z,84.31
2019-03-27T07:41:01.320Z,84.38
2019-03-27T07:43:27.119Z,84.66
2019-03-27T07:45:52.904Z,84.78
2019-03-27T07:48:18.685Z,84.63
2019-03-27T07:50:44.476Z,84.48
2019-03-27T07:53:10.266Z,84.21
2019-03-27T07:55:36.093Z,84.14
2019-03-27T07:58:01.867Z,84.18
2019-03-27T08:00:27.667Z,84.71
2019-03-27T08:02:53.454Z,85.14
2019-03-27T08:05:19.269Z,85.34
2019-03-27T08:07:45.036Z,85.16
2019-03-27T08:10:10.934Z,84.81
2019-03-27T08:12:36.715Z,84.91
2019-03-27T08:15:06.013Z,84.25
2019-03-27T08:17:32.103Z,84.11
2019-03-27T08:19:57.910Z,84.11
2019-03-27T08:22:23.708Z,83.61
2019-03-27T08:24:49.495Z,84.02
2019-03-27T08:27:15.293Z,83.23
2019-03-27T08:29:41.110Z,83.36
2019-03-27T08:32:06.887Z,83.65
2019-03-27T08:34:32.699Z,83.88
2019-03-27T08:36:58.489Z,83.64
2019-03-27T08:39:24.266Z,84.42
2019-03-27T08:41:50.064Z,84.86
2019-03-27T08:44:15.841Z,85.27
2019-03-27T08:46:41.643Z,85.31
2019-03-27T08:49:20.796Z,85.31
2019-03-27T08:51:35.114Z,85.57
2019-03-27T08:54:00.905Z,85.83
2019-03-27T08:56:26.710Z,86.13
2019-03-27T08:58:52.592Z,86.09
2019-03-27T09:01:18.491Z,86.10
2019-03-27T09:03:44.264Z,86.19
2019-03-27T09:06:10.051Z,85.90
2019-03-27T09:08:35.836Z,86.18
2019-03-27T09:11:04.479Z,86.22
2019-03-27T09:13:29.312Z,86.38
2019-03-27T09:15:55.102Z,86.38
2019-03-27T09:18:20.956Z,86.56
2019-03-27T09:20:46.810Z,87.16
2019-03-27T09:23:12.603Z,87.40
2019-03-27T09:25:38.398Z,87.78
2019-03-27T09:28:04.298Z,87.19
2019-03-27T09:30:30.197Z,87.19
2019-03-27T09:32:55.988Z,87.21
2019-03-27T09:35:21.776Z,86.96
2019-03-27T09:37:47.569Z,87.31
2019-03-27T09:40:15.059Z,87.13
2019-03-27T09:42:40.867Z,86.30
2019-03-27T09:45:07.645Z,86.30
2019-03-27T09:47:34.785Z,86.90
2019-03-27T09:50:00.692Z,86.14
2019-03-27T09:52:26.491Z,86.14
2019-03-27T09:54:52.268Z,86.81
2019-03-27T09:57:18.072Z,86.74
2019-03-27T09:59:43.851Z,86.59
2019-03-27T10:02:09.652Z,85.81
2019-03-27T10:04:35.437Z,85.53
2019-03-27T10:07:01.318Z,85.75
2019-03-27T10:09:27.123Z,86.49
2019-03-27T10:11:52.911Z,86.85
2019-03-27T10:14:18.702Z,87.11
2019-03-27T10:16:44.483Z,87.26
2019-03-27T10:19:10.280Z,87.32
2019-03-27T10:21:36.058Z,87.40
2019-03-27T10:24:01.871Z,87.54
2019-03-27T10:26:27.652Z,87.31
2019-03-27T10:28:53.455Z,87.21
2019-03-27T10:31:19.468Z,88.12
2019-03-27T10:33:45.277Z,88.66
2019-03-27T10:36:11.061Z,88.67
2019-03-27T10:38:36.860Z,89.10
2019-03-27T10:41:02.881Z,88.86
2019-03-27T10:43:28.693Z,87.55
2019-03-27T10:45:54.466Z,87.55
2019-03-27T10:48:20.267Z,87.91
2019-03-27T10:50:46.110Z,86.90
2019-03-27T10:53:11.895Z,87.37
2019-03-27T10:55:37.997Z,87.15
2019-03-27T10:58:03.849Z,87.55
2019-03-27T11:00:29.637Z,87.55
2019-03-27T11:02:55.415Z,87.07
2019-03-27T11:05:21.218Z,87.31
2019-03-27T11:07:47.057Z,86.75
2019-03-27T11:10:12.936Z,86.67
2019-03-27T11:12:38.767Z,86.46
2019-03-27T11:15:08.046Z,87.02
2019-03-27T11:17:33.837Z,87.26
2019-03-27T11:19:59.636Z,87.26
2019-03-27T11:22:25.427Z,86.95
2019-03-27T11:24:51.230Z,86.76
2019-03-27T11:27:17.018Z,86.80
2019-03-27T11:29:42.813Z,86.85
2019-03-27T11:32:08.603Z,87.12
2019-03-27T11:34:34.391Z,87.64
2019-03-27T11:37:00.179Z,88.25
2019-03-27T11:39:25.963Z,88.62
2019-03-27T11:41:51.737Z,88.50
2019-03-27T11:44:17.535Z,88.43
2019-03-27T11:46:43.320Z,88.05
2019-03-27T11:49:09.099Z,87.46
2019-03-27T11:51:34.912Z,88.19
2019-03-27T11:54:00.714Z,87.92
2019-03-27T11:56:26.470Z,88.57
2019-03-27T11:58:52.253Z,88.82
2019-03-27T12:01:18.059Z,88.93
2019-03-27T12:03:43.818Z,89.58
2019-03-27T12:06:09.624Z,89.66
2019-03-27T12:08:35.405Z,90.58
2019-03-27T12:11:01.200Z,91.19
2019-03-27T12:13:27.002Z,91.25
2019-03-27T12:15:52.803Z,91.25
2019-03-27T12:18:18.581Z,91.20
2019-03-27T12:20:57.766Z,91.39
2019-03-27T12:23:12.384Z,91.20
2019-03-27T12:25:39.002Z,91.91
2019-03-27T12:28:04.796Z,91.91
2019-03-27T12:30:30.573Z,92.25
2019-03-27T12:32:56.383Z,92.56
2019-03-27T12:35:22.159Z,92.53
2019-03-27T12:37:47.953Z,92.65
2019-03-27T12:40:13.740Z,92.78
2019-03-27T12:42:39.532Z,92.70
2019-03-27T12:45:05.425Z,92.75
2019-03-27T12:47:31.219Z,92.97
2019-03-27T12:49:57.009Z,93.04
2019-03-27T12:52:22.806Z,93.21
2019-03-27T12:54:48.584Z,93.27
2019-03-27T12:57:14.376Z,93.44
2019-03-27T12:59:40.164Z,93.43
2019-03-27T13:02:06.073Z,93.44
2019-03-27T13:04:31.853Z,93.11
2019-03-27T13:06:57.659Z,93.45
2019-03-27T13:09:23.429Z,93.18
2019-03-27T13:11:49.225Z,93.31
2019-03-27T13:14:15.010Z,93.55
2019-03-27T13:16:40.792Z,93.31
2019-03-27T13:19:06.587Z,93.52
2019-03-27T13:21:32.374Z,93.80
2019-03-27T13:23:58.179Z,94.12
2019-03-27T13:26:23.962Z,94.05
2019-03-27T13:28:49.754Z,94.38
2019-03-27T13:31:15.530Z,94.34
2019-03-27T13:33:41.318Z,94.18
2019-03-27T13:36:07.307Z,94.06
2019-03-27T13:38:33.107Z,94.11
2019-03-27T13:40:58.887Z,94.11
2019-03-27T13:43:24.678Z,94.47
2019-03-27T13:45:50.467Z,94.53
2019-03-27T13:48:16.268Z,94.45
2019-03-27T13:50:42.049Z,94.44
2019-03-27T13:53:07.844Z,94.41
2019-03-27T13:55:35.235Z,94.42
2019-03-27T13:58:01.230Z,94.42
2019-03-27T14:00:27.020Z,94.38
2019-03-27T14:02:52.799Z,94.66
2019-03-27T14:05:18.597Z,94.73
2019-03-27T14:07:44.370Z,94.54
2019-03-27T14:10:10.376Z,94.52
2019-03-27T14:12:36.157Z,94.54
2019-03-27T14:15:04.951Z,94.39
2019-03-27T14:17:30.736Z,94.63
2019-03-27T14:19:56.523Z,94.73
2019-03-27T14:22:22.326Z,94.68
2019-03-27T14:24:48.128Z,94.97
2019-03-27T14:27:13.903Z,94.83
2019-03-27T14:29:39.701Z,95.03
2019-03-27T14:32:05.484Z,94.96
2019-03-27T14:34:31.296Z,94.68
2019-03-27T14:36:57.113Z,94.76
2019-03-27T14:39:22.999Z,94.96
2019-03-27T14:41:48.789Z,95.23
2019-03-27T14:44:14.606Z,95.46
2019-03-27T14:46:40.382Z,95.50
2019-03-27T14:49:06.164Z,95.43
2019-03-27T14:51:31.956Z,95.62
2019-03-27T14:53:57.744Z,95.67
2019-03-27T14:56:23.565Z,95.69
2019-03-27T14:58:49.358Z,95.98
2019-03-27T15:01:15.141Z,95.90
2019-03-27T15:03:40.919Z,96.15
2019-03-27T15:06:06.726Z,96.04
2019-03-27T15:08:32.499Z,95.85
2019-03-27T15:10:58.288Z,96.06
2019-03-27T15:13:24.076Z,95.84
2019-03-27T15:15:49.879Z,95.74
2019-03-27T15:18:15.656Z,95.71
2019-03-27T15:20:41.443Z,95.69
2019-03-27T15:23:07.245Z,95.40
2019-03-27T15:25:33.033Z,95.30
2019-03-27T15:27:58.818Z,95.43
2019-03-27T15:30:24.769Z,95.17
2019-03-27T15:32:50.565Z,95.16
2019-03-27T15:35:16.372Z,95.04
2019-03-27T15:37:42.153Z,95.01
2019-03-27T15:40:08.047Z,95.02
2019-03-27T15:42:33.921Z,95.11
2019-03-27T15:44:59.827Z,95.16
2019-03-27T15:47:25.577Z,95.07
2019-03-27T15:49:51.363Z,95.27
2019-03-27T15:52:17.163Z,95.23
2019-03-27T15:54:42.951Z,95.10
2019-03-27T15:57:08.749Z,95.27
2019-03-27T15:59:34.529Z,95.27
2019-03-27T16:02:00.323Z,95.33
2019-03-27T16:04:26.105Z,95.19
2019-03-27T16:06:51.974Z,95.33
2019-03-27T16:09:18.772Z,95.42
2019-03-27T16:11:44.575Z,95.56
2019-03-27T16:14:10.447Z,95.73
2019-03-27T16:16:36.244Z,95.79
2019-03-27T16:19:02.023Z,95.84
2019-03-27T16:21:27.815Z,96.14
2019-03-27T16:24:05.897Z,96.09
2019-03-27T16:26:21.309Z,95.92
2019-03-27T16:28:47.123Z,95.93
2019-03-27T16:31:12.898Z,96.08
2019-03-27T16:33:38.713Z,95.98
2019-03-27T16:36:04.498Z,96.09
2019-03-27T16:38:30.291Z,96.14
2019-03-27T16:40:56.070Z,96.14
2019-03-27T16:43:21.870Z,96.13
2019-03-27T16:45:48.146Z,96.25
2019-03-27T16:48:13.944Z,96.06
2019-03-27T16:50:39.726Z,95.98
2019-03-27T16:53:05.518Z,95.99
2019-03-27T16:55:31.316Z,95.83
2019-03-27T16:57:57.112Z,95.83
2019-03-27T17:00:22.887Z,95.82
2019-03-27T17:02:48.686Z,95.72
2019-03-27T17:05:15.945Z,95.78
2019-03-27T17:07:41.856Z,95.64
2019-03-27T17:10:07.954Z,95.66
2019-03-27T17:12:33.741Z,95.71
2019-03-27T17:14:59.522Z,95.75
2019-03-27T17:17:25.311Z,95.70
2019-03-27T17:19:51.097Z,95.71
2019-03-27T17:22:19.679Z,95.96
2019-03-27T17:24:44.594Z,95.82
2019-03-27T17:27:10.491Z,95.49
2019-03-27T17:29:36.396Z,95.33
2019-03-27T17:32:02.192Z,95.28
2019-03-27T17:34:27.997Z,95.31
2019-03-27T17:36:53.769Z,95.26
2019-03-27T17:39:19.569Z,95.29
2019-03-27T17:41:45.355Z,95.31
2019-03-27T17:44:11.159Z,95.72
2019-03-27T17:46:36.938Z,95.46
2019-03-27T17:49:02.829Z,95.81
2019-03-27T17:51:28.620Z,95.40
2019-03-27T17:53:54.407Z,95.63
2019-03-27T17:56:20.207Z,95.57
2019-03-27T17:58:46.004Z,95.42
2019-03-27T18:01:11.788Z,95.34
2019-03-27T18:03:37.619Z,95.51
2019-03-27T18:06:03.504Z,95.63
2019-03-27T18:08:29.276Z,95.56
2019-03-27T18:10:55.078Z,95.68
2019-03-27T18:13:20.858Z,95.79
2019-03-27T18:15:46.646Z,95.73
2019-03-27T18:18:12.433Z,95.70
2019-03-27T18:20:38.247Z,96.19
2019-03-27T18:23:04.139Z,96.19
2019-03-27T18:25:29.930Z,96.06
2019-03-27T18:27:58.364Z,95.96
2019-03-27T18:30:23.393Z,95.85
2019-03-27T18:32:49.186Z,95.81
2019-03-27T18:35:14.989Z,95.76
2019-03-27T18:37:40.774Z,95.89
2019-03-27T18:40:06.907Z,95.87
2019-03-27T18:42:32.786Z,95.92
2019-03-27T18:44:58.631Z,95.94
2019-03-27T18:47:24.411Z,96.03
2019-03-27T18:49:50.402Z,95.97
2019-03-27T18:52:16.198Z,96.04
2019-03-27T18:54:41.980Z,96.04
2019-03-27T18:57:07.774Z,96.00
2019-03-27T18:59:33.556Z,96.01
2019-03-27T19:01:59.347Z,96.00
2019-03-27T19:04:25.345Z,96.13
2019-03-27T19:06:51.145Z,96.16
2019-03-27T19:09:16.918Z,96.13
2019-03-27T19:11:42.711Z,96.14
2019-03-27T19:14:08.492Z,96.33
2019-03-27T19:16:34.284Z,96.42
2019-03-27T19:19:00.062Z,96.37
2019-03-27T19:21:25.853Z,96.46
2019-03-27T19:23:53.136Z,96.36
2019-03-27T19:26:18.936Z,96.31
2019-03-27T19:28:44.716Z,96.34
2019-03-27T19:31:10.508Z,96.28
2019-03-27T19:33:36.288Z,96.34
2019-03-27T19:36:02.193Z,96.36
2019-03-27T19:38:27.997Z,96.28
2019-03-27T19:40:53.744Z,96.07
2019-03-27T19:43:19.539Z,96.41
2019-03-27T19:45:45.420Z,96.25
2019-03-27T19:48:11.211Z,96.34
2019-03-27T19:50:37.008Z,96.61
2019-03-27T19:53:02.901Z,96.61
2019-03-27T19:55:28.680Z,96.54
2019-03-27T19:57:54.467Z,96.54
2019-03-27T20:00:21.564Z,96.38
2019-03-27T20:02:47.378Z,96.38
2019-03-27T20:05:13.151Z,96.64
2019-03-27T20:07:38.944Z,96.51
2019-03-27T20:10:05.724Z,96.50
2019-03-27T20:12:31.521Z,96.62
2019-03-27T20:15:10.849Z,96.69
2019-03-27T20:17:25.594Z,96.80
2019-03-27T20:19:51.373Z,96.82
2019-03-27T20:22:17.178Z,96.76
2019-03-27T20:24:42.971Z,96.68
2019-03-27T20:27:09.269Z,96.70
2019-03-27T20:29:35.131Z,96.75
2019-03-27T20:32:01.237Z,96.74
2019-03-27T20:34:27.326Z,96.75
2019-03-27T20:36:53.322Z,96.88
2019-03-27T20:39:19.128Z,96.87
2019-03-27T20:41:45.087Z,96.96
2019-03-27T20:44:11.080Z,96.93
2019-03-27T20:46:37.239Z,96.98
2019-03-27T20:49:03.356Z,96.86
2019-03-27T20:51:29.141Z,96.97
2019-03-27T20:53:54.934Z,97.04
2019-03-27T20:56:20.944Z,97.10
2019-03-27T20:58:46.933Z,96.96
2019-03-27T21:01:12.844Z,97.01
2019-03-27T21:03:40.226Z,97.01
2019-03-27T21:06:06.006Z,97.01
2019-03-27T21:08:31.882Z,97.09
2019-03-27T21:10:57.659Z,97.13
2019-03-27T21:13:23.445Z,97.13
2019-03-27T21:15:49.232Z,97.02
2019-03-27T21:18:15.013Z,97.03
2019-03-27T21:20:40.808Z,97.01
2019-03-27T21:23:06.652Z,96.99
2019-03-27T21:25:32.448Z,97.02
2019-03-27T21:27:58.231Z,97.01
2019-03-27T21:30:24.032Z,97.13
2019-03-27T21:32:49.823Z,97.08
2019-03-27T21:35:15.612Z,97.15
2019-03-27T21:37:41.396Z,97.24
2019-03-27T21:40:07.493Z,97.32
2019-03-27T21:42:33.270Z,96.95
2019-03-27T21:44:59.073Z,97.21
2019-03-27T21:47:24.899Z,97.19
2019-03-27T21:49:50.764Z,97.23
2019-03-27T21:52:16.607Z,97.23
2019-03-27T21:54:42.531Z,97.22
2019-03-27T21:57:08.560Z,97.57
2019-03-27T21:59:34.686Z,97.47
2019-03-27T22:02:02.740Z,97.32
2019-03-27T22:04:28.538Z,97.25
2019-03-27T22:06:54.389Z,97.35
2019-03-27T22:09:20.583Z,97.13
2019-03-27T22:11:46.367Z,96.99
2019-03-27T22:14:12.160Z,97.25
2019-03-27T22:16:37.943Z,97.33
2019-03-27T22:19:04.017Z,97.47
2019-03-27T22:21:30.057Z,97.48
2019-03-27T22:23:55.867Z,97.33
2019-03-27T22:26:21.895Z,97.23
2019-03-27T22:28:50.756Z,97.39
2019-03-27T22:31:16.679Z,97.46
2019-03-27T22:33:42.457Z,97.38
2019-03-27T22:36:08.254Z,97.36
2019-03-27T22:38:34.675Z,97.18
2019-03-27T22:41:00.794Z,97.14
2019-03-27T22:43:28.026Z,97.28
2019-03-27T22:45:53.958Z,97.38
2019-03-27T22:48:19.891Z,97.40
2019-03-27T22:50:45.655Z,97.23
2019-03-27T22:53:11.446Z,97.27
2019-03-27T22:55:49.000Z,97.32
2019-03-27T22:58:04.978Z,97.27
2019-03-27T23:00:44.695Z,97.26
2019-03-27T23:03:18.046Z,97.17
2019-03-27T23:05:38.290Z,97.07
2019-03-27T23:08:04.065Z,97.03
2019-03-27T23:10:29.854Z,97.14
2019-03-27T23:12:55.707Z,97.20
2019-03-27T23:15:21.481Z,97.26
2019-03-27T23:17:47.280Z,97.12
2019-03-27T23:20:13.165Z,97.11
2019-03-27T23:22:38.971Z,96.95
2019-03-27T23:25:05.062Z,97.12
2019-03-27T23:27:30.851Z,96.85
2019-03-27T23:29:56.631Z,96.93
2019-03-27T23:32:22.419Z,96.82
2019-03-27T23:34:48.206Z,96.73
2019-03-27T23:37:14.054Z,96.71
2019-03-27T23:39:39.830Z,96.95
2019-03-27T23:42:05.619Z,96.91
2019-03-27T23:44:31.403Z,96.79
2019-03-27T23:46:57.208Z,96.82
2019-03-27T23:49:22.986Z,96.94
2019-03-27T23:51:48.781Z,96.88
2019-03-27T23:54:14.554Z,96.75
2019-03-27T23:56:40.379Z,96.75
2019-03-27T23:59:06.155Z,96.68
